Time;durP1;ratioP1;P1;durP2;ratioP2;P2;SDS_P1;SDS_P2;PMS_P1;PMS_P2;Temp;Humidity;BMP_temperature;BMP_pressure;BME280_temperature;BME280_humidity;BME280_pressure;Samples;Min_cycle;Max_cycle;Signal;HPM_P1;HPM_P2
2023/08/10 00:01:51;;;;;;;106.87;2.83;;;20.90;38.30;;;;;;5032925;28;20711;-73
2023/08/10 00:04:16;;;;;;;107.00;2.90;;;20.80;39.10;;;;;;5050964;28;20468;-73
2023/08/10 00:06:42;;;;;;;106.60;2.50;;;20.80;38.60;;;;;;5050186;28;20460;-73
2023/08/10 00:09:08;;;;;;;106.93;2.90;;;20.90;38.30;;;;;;5050967;28;20196;-73
2023/08/10 00:11:34;;;;;;;107.10;3.10;;;20.80;37.80;;;;;;5050770;28;20204;-73
2023/08/10 00:14:00;;;;;;;107.70;3.20;;;21.00;37.30;;;;;;5051029;28;20695;-73
2023/08/10 00:16:26;;;;;;;107.27;3.07;;;21.20;39.40;;;;;;5050724;28;20504;-73
2023/08/10 00:18:51;;;;;;;106.97;2.97;;;20.70;39.00;;;;;;5050788;28;20179;-73
2023/08/10 00:21:17;;;;;;;107.17;2.93;;;20.80;39.20;;;;;;5050876;28;20219;-73
2023/08/10 00:23:42;;;;;;;106.90;2.80;;;20.90;40.80;;;;;;5051134;28;20186;-73
2023/08/10 00:26:08;;;;;;;107.27;2.97;;;20.20;41.80;;;;;;5050485;28;20195;-73
2023/08/10 00:28:34;;;;;;;106.87;2.60;;;20.10;41.70;;;;;;5050769;28;20672;-73
2023/08/10 00:30:59;;;;;;;107.10;2.87;;;20.00;41.70;;;;;;5050270;28;20266;-76
2023/08/10 00:33:25;;;;;;;107.20;3.00;;;20.10;41.50;;;;;;5050723;28;20194;-75
2023/08/10 00:35:51;;;;;;;107.30;3.10;;;19.90;42.10;;;;;;5050544;28;20178;-75
2023/08/10 00:38:16;;;;;;;107.27;2.97;;;19.90;41.80;;;;;;5050674;28;20281;-75
2023/08/10 00:40:42;;;;;;;107.57;3.30;;;20.00;41.70;;;;;;5050520;28;20230;-75
2023/08/10 00:43:08;;;;;;;107.37;3.00;;;20.00;42.30;;;;;;5051185;28;20182;-76
2023/08/10 00:45:33;;;;;;;107.00;2.87;;;19.80;41.50;;;;;;5054234;28;20205;-75
2023/08/10 00:47:59;;;;;;;107.50;3.17;;;19.90;42.60;;;;;;5054398;28;20568;-76
2023/08/10 00:50:25;;;;;;;107.27;2.87;;;19.80;41.90;;;;;;5054452;28;20189;-75
2023/08/10 00:52:51;;;;;;;107.10;2.73;;;19.70;42.50;;;;;;5054231;28;20173;-76
2023/08/10 00:55:17;;;;;;;107.20;3.10;;;20.00;41.60;;;;;;5053745;28;20173;-75
2023/08/10 00:57:43;;;;;;;107.07;2.80;;;20.00;41.60;;;;;;5054082;28;20829;-75
2023/08/10 01:00:10;;;;;;;107.03;2.80;;;19.70;42.90;;;;;;5053395;28;20450;-76
2023/08/10 01:02:39;;;;;;;108.00;3.13;;;19.80;42.60;;;;;;5054002;28;20232;-76
2023/08/10 01:05:07;;;;;;;107.90;2.93;;;19.90;41.70;;;;;;5053888;28;20772;-75
2023/08/10 01:07:48;;;;;;;107.37;2.83;;;19.80;42.10;;;;;;5053752;28;20442;-75
2023/08/10 01:10:45;;;;;;;107.17;2.60;;;19.80;42.30;;;;;;5053501;28;20432;-75
2023/08/10 01:13:48;;;;;;;107.17;2.77;;;20.00;44.10;;;;;;4995741;28;20424;-75
2023/08/10 01:16:15;;;;;;;107.40;2.73;;;19.60;43.60;;;;;;4972140;28;20613;-75
2023/08/10 01:18:42;;;;;;;107.37;2.80;;;19.60;43.00;;;;;;4972649;28;20437;-75
2023/08/10 01:21:34;;;;;;;107.60;2.73;;;19.40;43.60;;;;;;4972203;28;20496;-75
2023/08/10 01:24:08;;;;;;;107.60;2.90;;;19.40;42.90;;;;;;4972443;28;20434;-75
2023/08/10 01:26:35;;;;;;;107.40;2.70;;;19.30;43.90;;;;;;4971937;28;20566;-75
2023/08/10 01:29:04;;;;;;;107.87;2.97;;;19.20;44.90;;;;;;4956389;28;20422;-75
2023/08/10 01:31:30;;;;;;;107.67;2.67;;;19.30;44.30;;;;;;4971998;28;20575;-75
2023/08/10 01:33:55;;;;;;;108.07;3.03;;;19.40;45.10;;;;;;4972363;28;20500;-75
2023/08/10 01:36:21;;;;;;;108.07;2.90;;;19.30;44.60;;;;;;4972110;28;20292;-75
2023/08/10 01:38:46;;;;;;;107.67;2.63;;;19.30;44.10;;;;;;4972070;28;20237;-75
2023/08/10 01:41:12;;;;;;;107.87;2.83;;;19.20;43.90;;;;;;4972114;28;20201;-75
2023/08/10 01:43:37;;;;;;;107.60;2.80;;;19.10;43.40;;;;;;4972308;28;20210;-75
2023/08/10 01:46:04;;;;;;;107.80;2.77;;;19.20;43.60;;;;;;4955508;28;20301;-75
2023/08/10 01:48:33;;;;;;;107.70;2.50;;;19.40;43.10;;;;;;4972116;28;20174;-75
2023/08/10 01:51:02;;;;;;;108.37;3.20;;;19.60;41.50;;;;;;4955555;28;20441;-75
2023/08/10 01:53:30;;;;;;;108.17;3.00;;;19.50;42.60;;;;;;5040580;28;20452;-75
2023/08/10 01:55:57;;;;;;;108.27;2.97;;;18.80;42.50;;;;;;5051621;28;20417;-75
2023/08/10 01:58:23;;;;;;;108.47;3.20;;;19.30;43.40;;;;;;5052797;28;20408;-76
2023/08/10 02:00:51;;;;;;;108.17;3.00;;;19.30;42.80;;;;;;5052417;28;20450;-75
2023/08/10 02:03:17;;;;;;;108.27;3.00;;;19.30;43.40;;;;;;5052813;28;20415;-75
2023/08/10 02:05:42;;;;;;;108.37;2.97;;;19.30;43.10;;;;;;5034669;28;20548;-76
2023/08/10 02:08:08;;;;;;;108.70;3.17;;;19.10;43.30;;;;;;5052673;28;20544;-75
2023/08/10 02:10:34;;;;;;;108.37;3.07;;;19.00;43.90;;;;;;5052501;28;20192;-76
2023/08/10 02:12:59;;;;;;;108.47;3.07;;;19.60;44.30;;;;;;5052780;28;20193;-76
2023/08/10 02:15:25;;;;;;;108.37;3.00;;;19.10;44.60;;;;;;5052329;28;20175;-75
2023/08/10 02:17:51;;;;;;;108.50;3.23;;;19.00;44.60;;;;;;5052361;28;20311;-75
2023/08/10 02:20:17;;;;;;;108.47;3.10;;;19.50;44.30;;;;;;5052377;28;20272;-75
2023/08/10 02:22:46;;;;;;;108.33;2.90;;;19.20;43.30;;;;;;5052506;28;20444;-75
2023/08/10 02:25:12;;;;;;;108.47;3.10;;;19.00;43.30;;;;;;5052046;28;20257;-75
2023/08/10 02:27:40;;;;;;;108.37;3.00;;;18.90;44.30;;;;;;5052397;28;20498;-75
2023/08/10 02:30:06;;;;;;;108.57;3.03;;;18.90;43.90;;;;;;5051917;28;20330;-75
2023/08/10 02:32:33;;;;;;;108.40;2.70;;;18.80;44.60;;;;;;5052367;28;20437;-76
2023/08/10 02:34:59;;;;;;;108.17;2.83;;;19.00;44.10;;;;;;5051999;28;20796;-76
2023/08/10 02:37:25;;;;;;;108.77;3.00;;;18.80;43.60;;;;;;5034072;28;20913;-75
2023/08/10 02:39:50;;;;;;;108.10;2.83;;;18.80;44.70;;;;;;5052105;28;20435;-75
2023/08/10 02:42:16;;;;;;;108.10;2.70;;;18.90;44.90;;;;;;5034231;28;20534;-76
2023/08/10 02:44:43;;;;;;;108.53;3.03;;;18.90;44.70;;;;;;5051863;28;20174;-75
2023/08/10 02:47:08;;;;;;;107.90;2.70;;;19.30;42.40;;;;;;5051995;28;20204;-76
2023/08/10 02:49:34;;;;;;;108.00;2.63;;;19.30;41.80;;;;;;5051985;28;20779;-75
2023/08/10 02:52:00;;;;;;;110.33;3.33;;;19.40;42.90;;;;;;5051776;28;20234;-75
2023/08/10 02:54:25;;;;;;;108.40;3.13;;;19.40;42.60;;;;;;5051740;28;20173;-75
2023/08/10 02:56:51;;;;;;;108.20;2.70;;;19.20;43.60;;;;;;5033972;28;20172;-75
2023/08/10 02:59:16;;;;;;;108.10;2.73;;;18.90;43.80;;;;;;5051981;28;20666;-75
2023/08/10 03:01:45;;;;;;;115.27;3.77;;;19.00;44.10;;;;;;5033523;28;20212;-75
2023/08/10 03:04:11;;;;;;;108.10;2.70;;;18.90;45.50;;;;;;5051716;28;20639;-75
2023/08/10 03:06:36;;;;;;;108.37;2.90;;;19.10;44.80;;;;;;5033021;28;20457;-76
2023/08/10 03:09:03;;;;;;;113.73;3.40;;;18.90;44.40;;;;;;5051688;28;20415;-75
2023/08/10 03:11:29;;;;;;;108.87;3.27;;;18.70;44.80;;;;;;5051504;28;20186;-75
2023/08/10 03:13:55;;;;;;;108.50;3.03;;;18.50;44.30;;;;;;5051935;28;20917;-75
2023/08/10 03:16:21;;;;;;;108.77;3.00;;;18.70;44.70;;;;;;5051223;28;20414;-75
2023/08/10 03:18:46;;;;;;;108.30;2.60;;;18.50;44.50;;;;;;5051614;28;20175;-76
2023/08/10 03:21:12;;;;;;;108.77;3.00;;;18.50;45.20;;;;;;5051270;28;20214;-75
2023/08/10 03:23:37;;;;;;;108.60;2.83;;;18.50;44.20;;;;;;5051578;28;20545;-75
2023/08/10 03:26:03;;;;;;;108.50;2.80;;;18.80;45.50;;;;;;5051019;28;20568;-76
2023/08/10 03:28:28;;;;;;;108.67;2.70;;;18.40;45.10;;;;;;5051477;28;20539;-75
2023/08/10 03:30:54;;;;;;;108.50;2.70;;;18.40;46.30;;;;;;5051033;28;20180;-76
2023/08/10 03:33:19;;;;;;;108.30;2.80;;;18.80;45.90;;;;;;5051102;28;20210;-76
2023/08/10 03:35:45;;;;;;;109.07;2.87;;;18.40;45.80;;;;;;5050812;28;20183;-75
2023/08/10 03:38:12;;;;;;;108.50;2.67;;;18.40;45.40;;;;;;5051286;28;20185;-75
2023/08/10 03:40:37;;;;;;;108.47;2.50;;;18.30;45.10;;;;;;5033548;28;20699;-75
2023/08/10 03:43:04;;;;;;;108.60;2.70;;;18.20;45.40;;;;;;5051163;28;20421;-76
2023/08/10 03:45:29;;;;;;;109.40;3.03;;;18.50;44.50;;;;;;5050888;28;20198;-75
2023/08/10 03:47:55;;;;;;;108.67;2.60;;;18.70;45.20;;;;;;5051100;28;20414;-75
2023/08/10 03:50:20;;;;;;;108.63;2.70;;;18.20;45.80;;;;;;5051092;28;20195;-76
2023/08/10 03:52:46;;;;;;;109.20;2.80;;;18.50;45.90;;;;;;5033452;28;20671;-75
2023/08/10 03:55:13;;;;;;;108.90;2.90;;;18.10;46.30;;;;;;5051157;28;20657;-75
2023/08/10 03:57:39;;;;;;;108.90;2.80;;;18.20;46.00;;;;;;5051209;28;20628;-75
2023/08/10 04:00:05;;;;;;;109.30;3.27;;;18.40;46.30;;;;;;5032415;28;20457;-75
2023/08/10 04:02:31;;;;;;;108.63;2.60;;;18.10;46.40;;;;;;5086055;22;20508;-76
2023/08/10 04:04:58;;;;;;;108.80;2.63;;;18.20;46.00;;;;;;5048134;28;20404;-75
2023/08/10 04:07:24;;;;;;;109.07;2.80;;;18.00;47.30;;;;;;5050776;28;20925;-76
2023/08/10 04:09:49;;;;;;;109.00;2.90;;;18.00;47.00;;;;;;5051175;28;20492;-75
2023/08/10 04:12:16;;;;;;;109.30;3.10;;;18.10;47.90;;;;;;5050951;28;20279;-75
2023/08/10 04:14:41;;;;;;;109.03;2.90;;;18.20;48.20;;;;;;5049546;28;20563;-75
2023/08/10 04:17:07;;;;;;;108.70;2.70;;;18.00;47.20;;;;;;5051026;28;20513;-76
2023/08/10 04:19:32;;;;;;;108.90;2.80;;;18.30;47.40;;;;;;5053702;28;20176;-76
2023/08/10 04:21:58;;;;;;;109.20;3.07;;;18.20;46.90;;;;;;5054797;28;20257;-75
2023/08/10 04:24:24;;;;;;;109.07;2.90;;;18.10;47.60;;;;;;5054694;28;20520;-75
2023/08/10 04:26:49;;;;;;;109.03;3.10;;;18.10;47.70;;;;;;5053301;28;20257;-76
2023/08/10 04:29:16;;;;;;;108.50;2.60;;;18.00;46.50;;;;;;5054651;28;20172;-76
2023/08/10 04:31:42;;;;;;;109.07;2.90;;;18.40;46.60;;;;;;5054649;28;20168;-75
2023/08/10 04:34:08;;;;;;;108.90;2.80;;;18.20;47.00;;;;;;5054169;28;20402;-75
2023/08/10 04:36:34;;;;;;;108.70;2.60;;;18.20;47.30;;;;;;5054352;28;20421;-76
2023/08/10 04:39:00;;;;;;;108.97;3.00;;;18.20;47.40;;;;;;5054523;28;20569;-76
2023/08/10 04:41:25;;;;;;;115.53;3.40;;;18.50;47.50;;;;;;5054629;28;20566;-76
2023/08/10 04:43:51;;;;;;;109.80;3.40;;;18.40;46.70;;;;;;5054462;28;20191;-75
2023/08/10 04:46:17;;;;;;;109.10;2.90;;;18.40;46.80;;;;;;5052756;28;20206;-75
2023/08/10 04:48:42;;;;;;;109.13;2.93;;;18.60;47.00;;;;;;5054130;28;20176;-75
2023/08/10 04:51:08;;;;;;;109.07;2.80;;;18.80;47.10;;;;;;5054349;28;20663;-75
2023/08/10 04:53:33;;;;;;;109.37;3.10;;;18.70;45.60;;;;;;5052242;28;20203;-76
2023/08/10 04:55:59;;;;;;;108.83;2.60;;;18.80;46.70;;;;;;5043224;28;20180;-75
2023/08/10 04:58:25;;;;;;;109.17;2.80;;;18.80;46.40;;;;;;5053916;28;20176;-75
2023/08/10 05:00:55;;;;;;;108.97;2.73;;;19.00;46.80;;;;;;5048496;28;20179;-75
2023/08/10 05:03:20;;;;;;;108.80;2.70;;;18.90;46.80;;;;;;5044669;28;21024;-75
2023/08/10 05:05:46;;;;;;;109.20;2.90;;;18.80;46.80;;;;;;5048591;28;20492;-76
2023/08/10 05:08:12;;;;;;;109.67;3.33;;;18.60;46.90;;;;;;5053877;28;20168;-75
2023/08/10 05:10:38;;;;;;;109.20;2.97;;;17.50;50.50;;;;;;5054039;28;20891;-76
2023/08/10 05:13:04;;;;;;;109.47;3.10;;;17.90;51.20;;;;;;5053916;28;20617;-75
2023/08/10 05:15:30;;;;;;;109.77;3.33;;;18.10;50.00;;;;;;5054191;28;20182;-75
2023/08/10 05:17:55;;;;;;;109.00;2.70;;;18.80;48.70;;;;;;5054348;28;20489;-75
2023/08/10 05:20:21;;;;;;;109.90;3.40;;;18.90;47.80;;;;;;5053007;28;20928;-75
2023/08/10 05:22:47;;;;;;;108.80;2.57;;;18.90;47.10;;;;;;5057566;28;20661;-76
2023/08/10 05:25:14;;;;;;;109.30;3.10;;;18.90;46.00;;;;;;5056374;28;20172;-76
2023/08/10 05:27:39;;;;;;;109.20;2.90;;;18.90;46.00;;;;;;5056164;28;20757;-75
2023/08/10 05:30:11;;;;;;;109.20;3.20;;;18.80;46.10;;;;;;5056804;28;20437;-76
2023/08/10 05:32:39;;;;;;;109.30;2.80;;;18.40;46.00;;;;;;5056363;28;20694;-76
2023/08/10 05:35:06;;;;;;;109.73;3.40;;;18.60;46.60;;;;;;5058470;28;20411;-76
2023/08/10 05:37:33;;;;;;;109.23;3.20;;;18.40;47.10;;;;;;5060306;28;20493;-76
2023/08/10 05:40:00;;;;;;;109.47;3.37;;;18.80;47.10;;;;;;5056585;28;20429;-75
2023/08/10 05:42:25;;;;;;;109.27;3.03;;;18.90;47.40;;;;;;5054375;28;20430;-76
2023/08/10 05:44:51;;;;;;;108.90;2.90;;;19.10;46.30;;;;;;5053971;28;20421;-76
2023/08/10 05:47:16;;;;;;;109.40;3.30;;;19.30;46.20;;;;;;5053917;28;20650;-76
2023/08/10 05:49:42;;;;;;;109.17;3.00;;;19.40;45.10;;;;;;5053624;28;20175;-75
2023/08/10 05:52:08;;;;;;;111.20;3.63;;;19.80;46.60;;;;;;5053539;28;20221;-75
2023/08/10 05:54:34;;;;;;;109.80;3.13;;;19.70;45.30;;;;;;5052975;28;20340;-76
2023/08/10 05:57:00;;;;;;;109.37;3.03;;;20.20;45.10;;;;;;5053087;28;20848;-75
2023/08/10 05:59:26;;;;;;;109.00;3.00;;;19.90;44.90;;;;;;5051697;28;20454;-76
2023/08/10 06:01:52;;;;;;;109.43;3.27;;;20.00;44.60;;;;;;5053253;28;20192;-75
2023/08/10 06:04:18;;;;;;;109.27;2.97;;;19.60;44.20;;;;;;5072650;28;20418;-75
2023/08/10 06:06:44;;;;;;;108.70;2.70;;;19.70;45.20;;;;;;5072736;28;21054;-76
2023/08/10 06:09:11;;;;;;;110.67;3.30;;;19.60;44.30;;;;;;5072674;28;20175;-75
2023/08/10 06:11:36;;;;;;;109.17;3.10;;;19.90;46.40;;;;;;5072796;28;20259;-76
2023/08/10 06:14:02;;;;;;;109.07;3.20;;;19.80;44.90;;;;;;5072875;28;20478;-75
2023/08/10 06:16:28;;;;;;;109.40;3.30;;;19.50;44.50;;;;;;5072260;28;20177;-76
2023/08/10 06:18:54;;;;;;;109.27;3.30;;;19.10;46.30;;;;;;5072714;28;20205;-75
2023/08/10 06:21:19;;;;;;;109.20;3.20;;;19.20;46.60;;;;;;5072319;28;20418;-76
2023/08/10 06:23:45;;;;;;;112.37;3.67;;;19.30;47.30;;;;;;5072523;28;20681;-75
2023/08/10 06:26:12;;;;;;;109.20;3.00;;;19.40;47.90;;;;;;5071985;28;20193;-75
2023/08/10 06:28:38;;;;;;;109.10;3.00;;;19.60;46.10;;;;;;5072543;28;20170;-76
2023/08/10 06:31:08;;;;;;;108.87;2.83;;;19.60;46.60;;;;;;5072217;28;20416;-76
2023/08/10 06:33:33;;;;;;;112.57;3.37;;;19.50;47.60;;;;;;5071996;28;20933;-76
2023/08/10 06:35:59;;;;;;;109.07;3.10;;;19.30;48.50;;;;;;5071956;28;20412;-76
2023/08/10 06:38:25;;;;;;;108.80;2.83;;;19.00;49.20;;;;;;5072230;28;20217;-75
2023/08/10 06:40:52;;;;;;;108.83;3.13;;;16.90;46.90;;;;;;5053643;28;20258;-75
2023/08/10 06:43:18;;;;;;;108.97;3.20;;;19.10;48.50;;;;;;5071985;28;20430;-76
2023/08/10 06:45:43;;;;;;;108.57;2.90;;;19.00;50.00;;;;;;5053782;28;20468;-75
2023/08/10 06:48:09;;;;;;;108.60;3.00;;;19.20;51.50;;;;;;5072160;28;20649;-76
2023/08/10 06:50:34;;;;;;;108.90;3.07;;;18.50;53.80;;;;;;5071953;28;20197;-75
2023/08/10 06:53:00;;;;;;;108.60;3.00;;;18.90;51.60;;;;;;5071995;28;20195;-75
2023/08/10 06:55:27;;;;;;;108.40;2.80;;;18.90;52.20;;;;;;5071541;28;20265;-75
2023/08/10 06:57:53;;;;;;;108.40;3.00;;;18.90;53.20;;;;;;5071900;28;20238;-76
2023/08/10 07:00:24;;;;;;;108.57;3.17;;;19.80;49.70;;;;;;5071762;28;21058;-76
2023/08/10 07:02:53;;;;;;;108.77;3.13;;;20.40;48.40;;;;;;5071461;28;20267;-76
2023/08/10 07:05:20;;;;;;;108.47;2.73;;;20.70;46.00;;;;;;5071247;28;20410;-76
2023/08/10 07:07:45;;;;;;;108.50;3.10;;;20.90;46.50;;;;;;5071898;28;20506;-75
2023/08/10 07:10:12;;;;;;;107.90;2.80;;;20.60;45.20;;;;;;5071602;28;20441;-75
2023/08/10 07:12:38;;;;;;;108.10;2.73;;;20.90;45.00;;;;;;5071683;28;20220;-76
2023/08/10 07:15:04;;;;;;;107.80;2.47;;;21.10;44.60;;;;;;5071410;28;20412;-75
2023/08/10 07:17:29;;;;;;;108.50;3.30;;;21.40;43.90;;;;;;5071465;28;20175;-76
2023/08/10 07:19:55;;;;;;;108.70;3.40;;;21.50;43.50;;;;;;5053742;28;20418;-76
2023/08/10 07:22:20;;;;;;;108.47;3.20;;;21.50;44.40;;;;;;5071255;28;20231;-76
2023/08/10 07:24:46;;;;;;;108.37;3.27;;;21.30;42.90;;;;;;5071441;28;20175;-76
2023/08/10 07:27:11;;;;;;;108.27;3.00;;;20.70;44.70;;;;;;5071196;28;20237;-75
2023/08/10 07:29:37;;;;;;;107.70;2.70;;;20.50;47.00;;;;;;5071834;28;20171;-75
2023/08/10 07:32:03;;;;;;;107.87;3.20;;;20.60;45.80;;;;;;5071088;28;20199;-75
2023/08/10 07:34:28;;;;;;;108.57;3.10;;;20.70;44.90;;;;;;5071278;28;20302;-75
2023/08/10 07:36:54;;;;;;;107.87;2.70;;;20.90;44.00;;;;;;5071291;28;20489;-75
2023/08/10 07:39:19;;;;;;;108.20;3.20;;;21.20;43.10;;;;;;5071354;28;20184;-76
2023/08/10 07:41:45;;;;;;;108.10;3.17;;;21.10;42.70;;;;;;5071078;28;20180;-75
2023/08/10 07:44:11;;;;;;;108.17;2.97;;;21.90;43.10;;;;;;5071435;28;20176;-75
2023/08/10 07:46:36;;;;;;;109.90;3.77;;;22.00;40.80;;;;;;5070989;28;20613;-76
2023/08/10 07:49:02;;;;;;;108.70;3.53;;;22.40;39.70;;;;;;5071452;28;20172;-76
2023/08/10 07:51:27;;;;;;;108.33;3.40;;;22.10;41.10;;;;;;5071227;28;20267;-76
2023/08/10 07:53:53;;;;;;;109.10;3.60;;;21.30;42.50;;;;;;5073310;28;20225;-76
2023/08/10 07:56:18;;;;;;;108.83;3.17;;;21.40;43.00;;;;;;5056819;28;20180;-76
2023/08/10 07:58:44;;;;;;;108.40;3.43;;;21.90;42.30;;;;;;5075449;28;20173;-76
2023/08/10 08:01:09;;;;;;;108.03;3.07;;;21.80;41.80;;;;;;5075361;28;20189;-76
2023/08/10 08:03:35;;;;;;;107.83;2.93;;;21.70;41.50;;;;;;5074728;28;20220;-76
2023/08/10 08:06:01;;;;;;;108.30;3.20;;;22.20;41.30;;;;;;5074831;28;20660;-76
2023/08/10 08:08:28;;;;;;;107.97;3.13;;;21.60;41.30;;;;;;5075063;28;20203;-75
2023/08/10 08:10:55;;;;;;;107.07;2.60;;;22.00;42.40;;;;;;5074952;28;20407;-76
2023/08/10 08:13:20;;;;;;;108.90;3.27;;;22.00;41.50;;;;;;5056810;28;21156;-76
2023/08/10 08:15:46;;;;;;;108.10;3.53;;;21.70;43.00;;;;;;5074808;28;20469;-76
2023/08/10 08:18:48;;;;;;;108.17;3.37;;;21.70;42.50;;;;;;5074802;28;20242;-75
2023/08/10 08:21:25;;;;;;;108.77;3.77;;;21.30;42.90;;;;;;5074724;28;20185;-76
2023/08/10 08:23:52;;;;;;;107.57;2.90;;;21.50;43.10;;;;;;5074781;28;20420;-76
2023/08/10 08:26:19;;;;;;;107.97;3.50;;;21.80;42.90;;;;;;5056391;28;20893;-75
2023/08/10 08:28:46;;;;;;;107.37;3.10;;;22.50;40.80;;;;;;5074805;28;20415;-76
2023/08/10 08:31:12;;;;;;;109.20;3.50;;;22.70;41.30;;;;;;5074656;28;20442;-76
2023/08/10 08:33:41;;;;;;;107.30;2.90;;;23.10;40.20;;;;;;5074205;28;20464;-74
2023/08/10 08:36:06;;;;;;;107.40;3.10;;;22.80;39.50;;;;;;5074258;28;20420;-73
2023/08/10 08:38:32;;;;;;;107.50;3.10;;;23.20;38.20;;;;;;5074490;28;20492;-73
2023/08/10 08:41:04;;;;;;;112.00;3.30;;;22.90;37.90;;;;;;5074616;28;20181;-73
2023/08/10 08:43:30;;;;;;;108.00;3.60;;;22.70;39.70;;;;;;5074245;28;20432;-74
2023/08/10 08:45:58;;;;;;;107.30;3.23;;;23.10;39.00;;;;;;5074265;28;20512;-73
2023/08/10 08:48:25;;;;;;;107.77;3.37;;;23.00;38.70;;;;;;5056188;28;20181;-73
2023/08/10 08:50:51;;;;;;;106.90;2.90;;;22.80;38.90;;;;;;5074663;28;20409;-73
2023/08/10 08:53:17;;;;;;;107.00;3.00;;;22.90;39.60;;;;;;5056020;28;20440;-73
2023/08/10 08:55:44;;;;;;;106.80;2.73;;;23.10;38.10;;;;;;5074119;28;20407;-73
2023/08/10 08:58:09;;;;;;;107.73;3.30;;;23.60;37.80;;;;;;5073941;28;20171;-73
2023/08/10 09:00:35;;;;;;;107.30;3.20;;;23.70;37.60;;;;;;5074214;28;20411;-76
2023/08/10 09:03:02;;;;;;;106.63;2.90;;;23.50;37.30;;;;;;5073363;28;20215;-73
2023/08/10 09:05:29;;;;;;;107.07;3.00;;;23.30;37.10;;;;;;5073240;28;20298;-74
2023/08/10 09:07:55;;;;;;;106.60;2.73;;;23.10;37.40;;;;;;5073923;28;20779;-73
2023/08/10 09:10:21;;;;;;;121.80;3.73;;;23.20;37.50;;;;;;5055978;28;20505;-73
2023/08/10 09:12:48;;;;;;;106.67;2.90;;;23.50;37.30;;;;;;5073688;28;20191;-73
2023/08/10 09:15:17;;;;;;;106.87;3.17;;;23.80;37.90;;;;;;5073695;28;20407;-76
2023/08/10 09:17:44;;;;;;;106.50;3.03;;;24.00;36.40;;;;;;5073901;28;20799;-76
2023/08/10 09:20:10;;;;;;;106.37;2.77;;;24.30;37.30;;;;;;5074036;28;20412;-76
2023/08/10 09:22:37;;;;;;;106.77;2.90;;;23.50;35.80;;;;;;5073883;28;20493;-76
2023/08/10 09:25:07;;;;;;;106.80;3.00;;;23.20;36.70;;;;;;5073319;28;20493;-76
2023/08/10 09:27:33;;;;;;;106.33;2.73;;;23.50;36.30;;;;;;5073673;28;20410;-76
2023/08/10 09:30:04;;;;;;;107.00;3.50;;;23.30;36.30;;;;;;5073460;28;20428;-76
2023/08/10 09:32:30;;;;;;;106.93;3.30;;;22.90;36.90;;;;;;5073370;28;20451;-76
2023/08/10 09:34:55;;;;;;;106.50;3.00;;;22.40;37.90;;;;;;5073269;28;20825;-73
2023/08/10 09:37:23;;;;;;;108.00;3.30;;;23.00;37.90;;;;;;5073439;28;20177;-73
2023/08/10 09:39:56;;;;;;;107.30;3.77;;;23.40;35.80;;;;;;5073496;28;20197;-73
2023/08/10 09:42:23;;;;;;;105.73;2.60;;;23.40;36.10;;;;;;5073629;28;20836;-76
2023/08/10 09:44:50;;;;;;;105.87;2.80;;;23.70;35.00;;;;;;5073143;28;20395;-73
2023/08/10 09:47:17;;;;;;;105.97;3.00;;;24.00;34.90;;;;;;5073074;28;20465;-74
2023/08/10 09:49:55;;;;;;;105.70;2.63;;;24.00;34.60;;;;;;5073221;28;20412;-75
2023/08/10 09:52:22;;;;;;;105.70;2.97;;;24.00;33.10;;;;;;5073062;28;20423;-75
2023/08/10 09:54:50;;;;;;;107.80;3.20;;;23.80;36.20;;;;;;5072859;28;20450;-73
2023/08/10 09:57:17;;;;;;;105.33;2.57;;;24.20;34.10;;;;;;5072888;28;20525;-74
2023/08/10 09:59:43;;;;;;;105.50;2.90;;;24.30;30.70;;;;;;5073062;28;20414;-74
2023/08/10 10:02:09;;;;;;;105.40;3.00;;;23.50;32.40;;;;;;5072553;28;20926;-74
2023/08/10 10:04:35;;;;;;;105.17;2.97;;;23.70;30.80;;;;;;5082729;22;20488;-80
2023/08/10 10:07:01;;;;;;;105.07;2.93;;;23.20;30.80;;;;;;5053905;28;20457;-79
2023/08/10 10:09:32;;;;;;;105.03;3.00;;;23.60;33.00;;;;;;5055316;28;20407;-79
2023/08/10 10:12:00;;;;;;;104.80;3.00;;;23.40;32.20;;;;;;5055249;28;20406;-79
2023/08/10 10:14:27;;;;;;;104.53;2.63;;;23.80;30.90;;;;;;5054236;28;20431;-82
2023/08/10 10:16:53;;;;;;;104.57;2.77;;;23.60;30.10;;;;;;5053424;28;20560;-80
2023/08/10 10:19:20;;;;;;;104.67;3.13;;;23.80;30.60;;;;;;5054008;28;20498;-79
2023/08/10 10:21:47;;;;;;;104.37;2.77;;;24.60;30.50;;;;;;5055530;28;20782;-79
2023/08/10 10:24:17;;;;;;;104.40;3.23;;;24.90;29.50;;;;;;5054724;28;20425;-79
2023/08/10 10:26:58;;;;;;;105.97;3.43;;;25.30;29.40;;;;;;5054912;28;20847;-79
2023/08/10 10:29:40;;;;;;;104.60;3.20;;;25.30;28.50;;;;;;5054321;28;20497;-79
2023/08/10 10:32:16;;;;;;;103.90;2.80;;;25.60;27.60;;;;;;5054672;28;20407;-79
2023/08/10 10:34:42;;;;;;;103.83;2.87;;;25.90;27.40;;;;;;5053991;28;20433;-79
2023/08/10 10:37:20;;;;;;;103.80;2.77;;;26.10;26.40;;;;;;5054995;28;20414;-79
2023/08/10 10:39:49;;;;;;;104.07;3.00;;;25.60;26.50;;;;;;5053970;28;20963;-79
2023/08/10 10:42:19;;;;;;;103.30;2.60;;;25.20;27.40;;;;;;5053760;28;20470;-79
2023/08/10 10:45:14;;;;;;;104.00;3.00;;;25.10;27.00;;;;;;5053797;28;20757;-79
2023/08/10 10:47:49;;;;;;;103.30;2.70;;;25.50;27.30;;;;;;5050026;28;20427;-79
2023/08/10 10:50:20;;;;;;;102.90;2.80;;;26.10;25.70;;;;;;5055157;28;20496;-79
2023/08/10 10:52:52;;;;;;;102.37;2.50;;;26.00;24.80;;;;;;5055543;28;20503;-79
2023/08/10 10:55:17;;;;;;;103.70;3.30;;;26.20;25.00;;;;;;5054773;28;20473;-80
2023/08/10 10:57:46;;;;;;;102.83;2.77;;;26.80;23.70;;;;;;5055507;28;20444;-80
2023/08/10 11:00:12;;;;;;;102.67;2.70;;;27.60;25.20;;;;;;5055842;28;20601;-79
2023/08/10 11:02:39;;;;;;;102.50;2.53;;;27.50;22.30;;;;;;5055650;28;20441;-79
2023/08/10 11:05:11;;;;;;;103.07;2.87;;;27.50;21.90;;;;;;5054361;28;20785;-79
2023/08/10 11:07:41;;;;;;;102.20;2.40;;;27.90;21.70;;;;;;5055641;28;20426;-79
2023/08/10 11:10:07;;;;;;;102.77;2.70;;;27.90;22.00;;;;;;5055212;28;20414;-80
2023/08/10 11:12:33;;;;;;;102.40;2.57;;;28.10;21.10;;;;;;5055264;28;20425;-79
2023/08/10 11:14:59;;;;;;;102.67;2.83;;;27.80;22.70;;;;;;5055599;28;20505;-80
2023/08/10 11:17:28;;;;;;;103.07;3.23;;;28.30;21.40;;;;;;5054784;28;21014;-79
2023/08/10 11:19:54;;;;;;;102.07;2.33;;;28.40;20.50;;;;;;5055692;28;20200;-79
2023/08/10 11:22:20;;;;;;;101.97;2.73;;;28.50;20.20;;;;;;5055224;28;20406;-79
2023/08/10 11:24:46;;;;;;;101.77;2.43;;;28.70;19.90;;;;;;5055102;28;20213;-79
2023/08/10 11:27:11;;;;;;;102.07;2.80;;;27.80;20.60;;;;;;5037219;28;20225;-79
2023/08/10 11:29:37;;;;;;;102.30;2.77;;;27.60;21.90;;;;;;5055760;28;20405;-79
2023/08/10 11:32:03;;;;;;;101.70;2.63;;;27.60;22.20;;;;;;5055640;28;20187;-79
2023/08/10 11:34:29;;;;;;;101.93;2.73;;;28.50;19.80;;;;;;5055477;28;20215;-80
2023/08/10 11:36:54;;;;;;;102.30;2.73;;;29.20;19.90;;;;;;5055376;28;20630;-80
2023/08/10 11:39:22;;;;;;;101.30;2.40;;;29.90;20.70;;;;;;5055660;28;20410;-80
2023/08/10 11:41:49;;;;;;;100.90;2.23;;;30.30;17.60;;;;;;5055616;28;20171;-79
2023/08/10 11:44:32;;;;;;;100.93;2.30;;;30.50;16.90;;;;;;5055717;28;20458;-80
2023/08/10 11:46:58;;;;;;;100.40;2.27;;;30.90;18.40;;;;;;5055259;28;20458;-80
2023/08/10 11:49:31;;;;;;;100.40;2.30;;;31.10;15.90;;;;;;5055453;28;20403;-80
2023/08/10 11:52:03;;;;;;;99.87;2.10;;;30.90;13.90;;;;;;5054832;28;20412;-81
2023/08/10 11:54:34;;;;;;;99.43;2.53;;;31.00;15.90;;;;;;5054960;28;20430;-80
2023/08/10 11:57:13;;;;;;;98.93;2.10;;;31.20;16.00;;;;;;5054517;28;20471;-80
2023/08/10 11:59:39;;;;;;;98.73;2.13;;;31.70;15.20;;;;;;5054889;28;20460;-80
2023/08/10 12:02:14;;;;;;;99.77;2.30;;;32.40;14.70;;;;;;5054844;28;20457;-80
2023/08/10 12:04:40;;;;;;;98.33;1.90;;;32.90;13.00;;;;;;5055038;28;20449;-80
2023/08/10 12:07:06;;;;;;;99.67;2.70;;;33.50;13.40;;;;;;5055056;28;20990;-80
2023/08/10 12:09:32;;;;;;;98.63;2.60;;;33.10;13.10;;;;;;5054926;28;20422;-80
2023/08/10 12:11:58;;;;;;;97.30;2.00;;;32.30;12.90;;;;;;5054389;28;20175;-80
2023/08/10 12:14:24;;;;;;;97.93;2.00;;;31.60;13.90;;;;;;5054208;28;20188;-80
2023/08/10 12:16:50;;;;;;;97.90;2.13;;;31.00;16.80;;;;;;5053990;28;20433;-80
2023/08/10 12:19:16;;;;;;;98.17;2.50;;;31.90;15.60;;;;;;5054089;28;20437;-80
2023/08/10 12:21:41;;;;;;;98.00;2.13;;;32.90;14.90;;;;;;5055056;28;20414;-80
2023/08/10 12:24:07;;;;;;;97.37;1.90;;;33.20;12.60;;;;;;5055973;28;20207;-81
2023/08/10 12:26:32;;;;;;;96.97;2.00;;;33.20;12.70;;;;;;5055996;28;20257;-80
2023/08/10 12:28:58;;;;;;;97.43;2.10;;;32.00;14.30;;;;;;5037979;28;20749;-80